Time;durP1;ratioP1;P1;durP2;ratioP2;P2;SDS_P1;SDS_P2;PMS_P1;PMS_P2;Temp;Humidity;BMP_temperature;BMP_pressure;BME280_temperature;BME280_humidity;BME280_pressure;Samples;Min_cycle;Max_cycle;Signal;HPM_P1;HPM_P2
2022/05/23 00:00:07;;;;;;;13.55;5.53;;;;;;;15.16;61.62;100900.84;5009393;28;119843;-74
2022/05/23 00:02:34;;;;;;;11.43;5.68;;;;;;;15.15;62.17;100902.09;4990598;28;120614;-74
2022/05/23 00:05:00;;;;;;;10.75;5.72;;;;;;;15.18;62.27;100908.66;5010099;28;120034;-74
2022/05/23 00:07:30;;;;;;;13.43;6.47;;;;;;;15.18;62.43;100906.66;5008398;28;119679;-74
2022/05/23 00:09:55;;;;;;;18.05;6.95;;;;;;;15.20;62.80;100912.47;5006584;28;119915;-74
2022/05/23 00:12:22;;;;;;;15.38;6.55;;;;;;;15.22;62.83;100909.22;5006263;28;119807;-74
2022/05/23 00:14:50;;;;;;;15.80;6.63;;;;;;;15.23;62.94;100894.16;5007897;28;120481;-74
2022/05/23 00:17:16;;;;;;;17.75;7.30;;;;;;;15.25;63.16;100891.69;5009368;28;119708;-74
2022/05/23 00:19:42;;;;;;;13.55;7.00;;;;;;;15.25;63.22;100892.44;4990104;28;120003;-74
2022/05/23 00:22:10;;;;;;;12.85;7.20;;;;;;;15.29;63.26;100893.00;5002853;27;119980;-74
2022/05/23 00:24:35;;;;;;;16.05;8.15;;;;;;;15.30;63.24;100888.25;4997843;27;120010;-74
2022/05/23 00:27:01;;;;;;;16.48;8.75;;;;;;;15.34;63.17;100900.63;5006094;28;119562;-74
2022/05/23 00:29:27;;;;;;;11.55;7.93;;;;;;;15.33;62.84;100893.56;4970528;28;120335;-74
2022/05/23 00:37:24;;;;;;;19.02;8.95;;;;;;;15.31;62.95;100878.72;4996199;28;119885;-74
2022/05/23 00:39:50;;;;;;;15.50;8.85;;;;;;;15.31;63.45;100875.94;5010673;28;120144;-74
2022/05/23 00:45:06;;;;;;;15.80;8.52;;;;;;;15.33;63.81;100870.69;5007407;28;119947;-74
2022/05/23 00:47:35;;;;;;;16.55;8.18;;;;;;;15.33;63.03;100871.47;4990330;28;120047;-74
2022/05/23 00:50:02;;;;;;;15.38;8.00;;;;;;;15.33;63.34;100865.94;5007738;28;120131;-74
2022/05/23 00:52:32;;;;;;;13.85;8.23;;;;;;;15.32;63.28;100864.41;5004178;27;119519;-74
2022/05/23 00:55:15;;;;;;;14.77;8.00;;;;;;;15.34;63.68;100861.94;5007243;28;119842;-74
2022/05/23 00:57:45;;;;;;;14.27;7.70;;;;;;;15.34;63.51;100861.94;4989127;28;121244;-74
2022/05/23 01:00:17;;;;;;;11.23;7.38;;;;;;;15.32;63.46;100861.66;4991821;28;120008;-74
2022/05/23 01:02:50;;;;;;;9.73;7.45;;;;;;;15.33;63.21;100870.69;4992842;28;121385;-74
2022/05/23 01:05:16;;;;;;;15.57;7.97;;;;;;;15.31;62.88;100862.88;4991497;28;119905;-74
2022/05/23 01:07:41;;;;;;;12.52;7.88;;;;;;;15.33;63.15;100865.19;4971779;28;119851;-74
2022/05/23 01:10:10;;;;;;;18.23;8.70;;;;;;;15.30;63.04;100864.13;4973201;28;120611;-74
2022/05/23 01:12:36;;;;;;;17.13;8.45;;;;;;;15.31;63.50;100860.13;4988170;28;119638;-74
2022/05/23 01:15:03;;;;;;;12.52;7.78;;;;;;;15.32;63.75;100861.66;4989837;28;119650;-74
2022/05/23 01:17:29;;;;;;;9.85;7.75;;;;;;;15.34;63.96;100859.16;5008929;28;120013;-74
2022/05/23 01:20:01;;;;;;;11.10;7.15;;;;;;;15.33;63.47;100851.34;5006969;28;119364;-74
2022/05/23 01:22:40;;;;;;;10.82;6.72;;;;;;;15.33;63.00;100852.13;5009659;28;119622;-74
2022/05/23 01:25:19;;;;;;;11.27;6.75;;;;;;;15.32;62.82;100847.06;4990932;28;120679;-74
2022/05/23 01:27:47;;;;;;;10.38;7.57;;;;;;;15.30;63.42;100844.03;5005717;28;120112;-74
2022/05/23 01:30:15;;;;;;;12.70;7.57;;;;;;;15.32;63.13;100853.34;5007452;28;119837;-74
2022/05/23 01:32:51;;;;;;;15.05;7.88;;;;;;;15.29;63.25;100843.25;4990374;28;120128;-74
2022/05/23 01:35:20;;;;;;;11.30;7.63;;;;;;;15.26;63.44;100846.22;4988190;28;119495;-74
2022/05/23 01:37:46;;;;;;;12.68;7.35;;;;;;;15.29;63.11;100850.78;4989550;28;119525;-74
2022/05/23 01:40:27;;;;;;;12.20;7.32;;;;;;;15.27;63.45;100845.75;4972242;28;120724;-74
2022/05/23 01:43:01;;;;;;;13.70;7.90;;;;;;;15.25;63.46;100848.22;5003347;28;119652;-74
2022/05/23 01:45:30;;;;;;;11.05;7.35;;;;;;;15.23;62.88;100850.72;4994339;28;120240;-74
2022/05/23 01:48:06;;;;;;;16.30;7.55;;;;;;;15.20;63.13;100854.44;4987854;28;119841;-74
2022/05/23 01:50:31;;;;;;;12.32;7.22;;;;;;;15.17;62.69;100852.63;4987193;28;119855;-74
2022/05/23 01:53:01;;;;;;;14.68;7.13;;;;;;;15.12;62.00;100850.53;5002633;28;122960;-74
2022/05/23 01:55:37;;;;;;;11.70;7.28;;;;;;;15.05;61.87;100843.38;5002901;28;119645;-74
2022/05/23 02:01:14;;;;;;;12.60;7.07;;;;;;;14.94;62.17;100828.63;5005892;28;119537;-74
2022/05/23 02:03:46;;;;;;;9.20;7.07;;;;;;;14.92;62.61;100833.88;5001902;28;119719;-74
2022/05/23 02:06:13;;;;;;;14.10;7.70;;;;;;;14.87;62.94;100827.00;5010064;28;119531;-74
2022/05/23 02:08:39;;;;;;;12.88;7.93;;;;;;;14.85;62.70;100823.94;4978282;28;123147;-74
2022/05/23 02:11:06;;;;;;;11.25;7.53;;;;;;;14.86;62.63;100827.47;4993004;28;120035;-74
2022/05/23 02:13:39;;;;;;;13.77;7.68;;;;;;;14.81;62.68;100812.34;4989091;28;121429;-74
2022/05/23 02:16:05;;;;;;;12.90;7.10;;;;;;;14.80;63.10;100812.81;4989813;28;120132;-74
2022/05/23 02:18:40;;;;;;;9.73;7.22;;;;;;;14.79;62.89;100805.78;5007993;28;119316;-74
2022/05/23 02:21:09;;;;;;;10.23;6.75;;;;;;;14.77;62.41;100809.00;5006769;28;120022;-74
2022/05/23 02:23:36;;;;;;;10.48;6.53;;;;;;;14.74;62.65;100798.94;5009085;27;119532;-74
2022/05/23 02:26:03;;;;;;;11.20;6.70;;;;;;;14.70;62.46;100796.34;4975570;28;121188;-74
2022/05/23 02:29:02;;;;;;;8.68;6.55;;;;;;;14.69;62.68;100785.78;4991218;28;120362;-74
2022/05/23 02:31:29;;;;;;;10.55;6.32;;;;;;;14.66;62.75;100779.19;4998012;28;119745;-74
2022/05/23 02:34:10;;;;;;;11.90;6.32;;;;;;;14.64;62.91;100772.63;4989730;28;119922;-74
2022/05/23 02:36:42;;;;;;;9.32;6.43;;;;;;;14.61;62.29;100773.59;5007570;28;119981;-74
2022/05/23 02:39:10;;;;;;;9.30;6.10;;;;;;;14.55;62.45;100765.22;4987842;28;120035;-74
2022/05/23 02:41:35;;;;;;;8.57;5.63;;;;;;;14.52;62.52;100765.41;5001022;28;119870;-74
2022/05/23 02:44:04;;;;;;;9.32;5.40;;;;;;;14.52;62.43;100766.16;4988696;28;119613;-74
2022/05/23 02:46:30;;;;;;;8.95;5.82;;;;;;;14.48;62.62;100756.56;4989665;28;119996;-74
2022/05/23 02:49:14;;;;;;;8.65;5.57;;;;;;;14.50;62.85;100757.59;4986702;28;119917;-74
2022/05/23 02:51:44;;;;;;;9.55;5.60;;;;;;;14.48;62.48;100760.09;4989624;28;119833;-74
2022/05/23 02:54:11;;;;;;;7.53;5.28;;;;;;;14.50;62.83;100756.84;5011964;28;120041;-74
2022/05/23 02:56:39;;;;;;;8.45;5.95;;;;;;;14.50;63.05;100749.31;4992473;28;119683;-74
2022/05/23 02:59:05;;;;;;;11.55;5.28;;;;;;;14.49;62.58;100739.53;4990825;28;119652;-74
2022/05/23 03:01:32;;;;;;;12.57;5.43;;;;;;;14.46;62.61;100734.19;5008059;28;120487;-74
2022/05/23 03:03:59;;;;;;;8.18;5.43;;;;;;;14.44;62.61;100740.19;4991974;28;120126;-74
2022/05/23 03:06:25;;;;;;;8.48;5.28;;;;;;;14.40;62.98;100736.81;4957537;28;119886;-74
2022/05/23 03:08:50;;;;;;;8.82;5.18;;;;;;;14.40;63.11;100734.81;4989189;28;119461;-74
2022/05/23 03:11:18;;;;;;;6.10;4.57;;;;;;;14.42;63.11;100732.34;4989821;28;119704;-74
2022/05/23 03:13:44;;;;;;;9.00;5.18;;;;;;;14.43;63.77;100724.84;4991911;28;122171;-74
2022/05/23 03:16:12;;;;;;;8.20;4.90;;;;;;;14.43;63.17;100727.59;5009780;27;119577;-74
2022/05/23 03:18:41;;;;;;;8.77;4.78;;;;;;;14.44;62.91;100723.63;4990028;28;119982;-74
2022/05/23 03:26:58;;;;;;;7.82;4.50;;;;;;;14.46;63.07;100725.91;5005041;28;121141;-74
2022/05/23 03:27:00;;;;;;;;;;;;;;;14.45;63.07;100725.16;5008006;27;119631;-74
2022/05/23 03:29:31;;;;;;;6.88;4.60;;;;;;;14.46;63.42;100731.44;4991281;28;119788;-74
2022/05/23 03:32:00;;;;;;;9.02;4.38;;;;;;;14.48;63.61;100732.47;5005234;27;119712;-74
2022/05/23 03:34:25;;;;;;;13.60;4.70;;;;;;;14.49;63.62;100725.72;5008104;28;119416;-74
2022/05/23 03:36:51;;;;;;;7.65;4.03;;;;;;;14.45;63.62;100716.13;4995183;28;121476;-74
2022/05/23 03:39:17;;;;;;;6.93;4.15;;;;;;;14.54;63.72;100719.53;4991367;28;119903;-74
2022/05/23 03:41:43;;;;;;;7.43;4.15;;;;;;;14.55;64.09;100718.28;4990349;28;121589;-74
2022/05/23 03:44:09;;;;;;;9.98;3.88;;;;;;;14.58;64.14;100708.28;4991450;28;119425;-74
2022/05/23 03:46:36;;;;;;;8.38;3.95;;;;;;;14.65;64.08;100716.19;5008033;28;119489;-74
2022/05/23 03:49:06;;;;;;;9.07;4.57;;;;;;;14.70;64.48;100716.28;4989052;28;120067;-74
2022/05/23 03:51:33;;;;;;;9.13;4.13;;;;;;;14.74;64.76;100718.84;4989077;28;119384;-74
2022/05/23 03:54:01;;;;;;;9.27;4.40;;;;;;;14.80;64.83;100713.41;4990477;28;120367;-74
2022/05/23 03:56:26;;;;;;;12.10;4.20;;;;;;;14.89;64.54;100716.81;4990876;28;120001;-74
2022/05/23 03:58:55;;;;;;;9.40;3.90;;;;;;;14.96;64.19;100721.19;4994373;28;119510;-74
2022/05/23 04:01:30;;;;;;;8.52;3.83;;;;;;;15.03;64.73;100710.50;5004830;28;119969;-74
2022/05/23 04:04:11;;;;;;;7.90;3.75;;;;;;;15.10;64.33;100714.88;5006587;27;119653;-74
2022/05/23 04:06:39;;;;;;;9.20;4.00;;;;;;;15.17;63.98;100720.00;4989213;28;120021;-74
2022/05/23 04:09:06;;;;;;;6.72;3.78;;;;;;;15.28;64.13;100713.88;5005117;28;119854;-74
2022/05/23 04:11:34;;;;;;;8.38;3.53;;;;;;;15.33;63.95;100718.69;5004680;28;119451;-74
2022/05/23 04:14:01;;;;;;;7.38;3.40;;;;;;;15.40;64.43;100714.78;4989967;28;119815;-74
2022/05/23 04:16:31;;;;;;;10.23;3.38;;;;;;;15.47;64.29;100711.59;4989175;28;121591;-74
2022/05/23 04:18:57;;;;;;;9.68;3.70;;;;;;;15.55;64.24;100713.47;4990335;28;119864;-74
2022/05/23 04:21:24;;;;;;;7.88;3.55;;;;;;;15.61;63.84;100713.56;4993171;28;119939;-74
2022/05/23 04:23:50;;;;;;;8.55;3.47;;;;;;;15.57;63.81;100688.84;5006843;27;119652;-74
2022/05/23 04:26:19;;;;;;;6.85;3.58;;;;;;;15.69;63.62;100702.84;5006156;28;120000;-74
2022/05/23 04:28:45;;;;;;;6.07;3.28;;;;;;;15.74;63.13;100699.38;5007051;28;119592;-74
2022/05/23 04:31:11;;;;;;;6.82;3.70;;;;;;;15.80;63.70;100703.72;5007525;28;119675;-74
2022/05/23 04:36:46;;;;;;;7.65;3.25;;;;;;;15.90;63.21;100707.88;5005106;28;119576;-74
2022/05/23 04:39:15;;;;;;;8.65;3.28;;;;;;;15.92;62.63;100705.38;4974295;28;119656;-74
2022/05/23 04:41:41;;;;;;;6.65;3.28;;;;;;;15.94;62.76;100697.34;4990740;28;119569;-74
2022/05/23 04:44:09;;;;;;;6.68;3.38;;;;;;;16.03;63.14;100703.97;5009975;28;120076;-74
2022/05/23 04:49:41;;;;;;;7.10;3.50;;;;;;;16.06;62.68;100691.94;5006042;28;119511;-74
2022/05/23 04:49:42;;;;;;;7.70;3.67;;;;;;;16.09;62.83;100691.75;4996634;28;120136;-74
2022/05/23 04:52:26;;;;;;;6.53;3.28;;;;;;;16.13;63.17;100685.97;5007694;27;119427;-74
2022/05/23 04:54:52;;;;;;;8.65;3.42;;;;;;;16.16;62.99;100676.69;4989939;28;119795;-74
2022/05/23 04:57:18;;;;;;;7.55;3.30;;;;;;;16.22;63.28;100669.19;5008953;28;119372;-74
2022/05/23 04:59:44;;;;;;;6.78;3.30;;;;;;;16.30;63.30;100675.03;4991020;28;119669;-74
2022/05/23 05:02:19;;;;;;;7.90;3.55;;;;;;;16.35;62.89;100669.59;5009036;28;119939;-74
2022/05/23 05:04:49;;;;;;;6.35;3.40;;;;;;;16.39;63.11;100658.28;5007536;28;119984;-74
2022/05/23 05:07:15;;;;;;;9.68;3.33;;;;;;;16.41;62.83;100653.00;5013208;28;120024;-74
2022/05/23 05:09:40;;;;;;;8.70;3.58;;;;;;;16.43;62.22;100650.50;4989013;28;122739;-74
2022/05/23 05:12:07;;;;;;;4.40;3.20;;;;;;;16.43;62.62;100659.56;5006995;28;119748;-74
2022/05/23 05:14:35;;;;;;;9.25;4.05;;;;;;;16.48;62.53;100661.63;4973738;28;121319;-74
2022/05/23 05:17:04;;;;;;;10.15;3.60;;;;;;;16.50;62.22;100656.34;4991410;28;121136;-74
2022/05/23 05:19:31;;;;;;;9.48;3.58;;;;;;;16.51;62.12;100655.09;5008372;28;119948;-74
2022/05/23 05:22:15;;;;;;;7.63;3.50;;;;;;;16.52;62.59;100650.31;5005171;28;120001;-74
2022/05/23 05:25:03;;;;;;;8.10;3.05;;;;;;;16.53;62.99;100635.97;4989944;28;119485;-74
2022/05/23 05:27:35;;;;;;;8.55;3.30;;;;;;;16.61;62.99;100641.09;4992481;28;119395;-74
2022/05/23 05:30:03;;;;;;;7.85;3.55;;;;;;;16.63;63.28;100638.56;4991804;28;119924;-74
2022/05/23 05:32:39;;;;;;;9.95;3.70;;;;;;;16.68;63.35;100651.72;5008553;28;119848;-74
2022/05/23 05:35:32;;;;;;;10.27;3.75;;;;;;;16.70;62.83;100638.91;5006897;28;119410;-75
2022/05/23 05:38:10;;;;;;;8.52;3.30;;;;;;;16.73;63.03;100635.13;4990444;28;120624;-74
2022/05/23 05:40:36;;;;;;;6.90;3.38;;;;;;;16.79;62.82;100627.63;5008551;27;119837;-74
2022/05/23 05:43:10;;;;;;;6.22;3.03;;;;;;;16.84;62.60;100629.69;4989123;28;119541;-74
2022/05/23 05:45:48;;;;;;;7.07;3.60;;;;;;;16.92;63.38;100626.44;5006903;28;120008;-74
2022/05/23 05:48:40;;;;;;;8.52;3.33;;;;;;;16.96;63.72;100619.41;4989111;28;119485;-74
2022/05/23 05:51:09;;;;;;;8.38;3.90;;;;;;;17.02;63.52;100620.19;4990071;28;119515;-74
2022/05/23 05:53:38;;;;;;;9.63;4.05;;;;;;;17.08;63.77;100617.47;4992190;28;119902;-74
2022/05/23 05:56:12;;;;;;;9.38;3.47;;;;;;;17.13;63.10;100620.25;5005768;27;119861;-74
2022/05/23 05:58:38;;;;;;;6.30;3.05;;;;;;;17.17;63.02;100606.91;5009649;27;119851;-74
2022/05/23 06:01:04;;;;;;;6.85;3.00;;;;;;;17.17;62.34;100598.59;5011223;27;119451;-74
2022/05/23 06:03:34;;;;;;;8.13;3.13;;;;;;;17.23;62.24;100600.63;4994185;28;119648;-74
2022/05/23 06:11:40;;;;;;;6.32;3.38;;;;;;;17.37;62.19;100594.13;4969408;27;122098;-74
2022/05/23 06:14:15;;;;;;;6.22;3.30;;;;;;;17.40;62.62;100593.91;4988837;27;120325;-74
2022/05/23 06:16:45;;;;;;;8.70;3.58;;;;;;;17.42;62.58;100587.84;4974068;27;119843;-74
2022/05/23 06:19:19;;;;;;;9.07;3.40;;;;;;;17.48;62.43;100583.06;4991718;28;120042;-74
2022/05/23 06:21:56;;;;;;;6.65;3.17;;;;;;;17.53;62.28;100574.03;5002408;28;120055;-74
2022/05/23 06:24:22;;;;;;;6.43;3.17;;;;;;;17.54;61.73;100575.53;4970132;28;119755;-74
2022/05/23 06:26:52;;;;;;;9.48;2.70;;;;;;;17.57;61.32;100580.06;5002942;28;121397;-74
2022/05/23 06:29:33;;;;;;;7.50;3.17;;;;;;;17.58;61.86;100576.03;5003114;28;119547;-74
2022/05/23 06:32:19;;;;;;;8.32;3.28;;;;;;;17.62;60.51;100576.56;4984482;28;120070;-74
2022/05/23 06:34:44;;;;;;;5.10;2.60;;;;;;;17.64;60.53;100574.03;4993646;28;119952;-74
2022/05/23 06:37:11;;;;;;;5.90;2.60;;;;;;;17.63;60.72;100561.44;4989097;28;119897;-74
2022/05/23 06:39:37;;;;;;;7.53;2.70;;;;;;;17.72;60.26;100557.66;4991262;28;120155;-74
2022/05/23 06:42:21;;;;;;;;;;;;;;;17.74;59.93;100555.16;5004767;27;119887;-74
2022/05/23 06:45:15;;;;;;;9.10;2.97;;;;;;;17.81;60.27;100556.69;4992604;27;119603;-74
2022/05/23 06:48:10;;;;;;;6.32;2.40;;;;;;;17.85;59.36;100554.41;4979101;27;119907;-74
2022/05/23 06:50:54;;;;;;;6.50;2.63;;;;;;;17.89;60.18;100564.00;4989325;27;119632;-74
2022/05/23 06:53:30;;;;;;;7.50;2.33;;;;;;;17.94;60.34;100552.13;4989769;28;121310;-74
2022/05/23 06:56:12;;;;;;;7.07;2.65;;;;;;;17.99;60.43;100547.88;5012820;27;119559;-74
2022/05/23 06:58:40;;;;;;;4.65;2.15;;;;;;;18.05;59.03;100543.81;5002921;27;119710;-74
2022/05/23 07:01:16;;;;;;;4.03;2.20;;;;;;;18.08;60.02;100534.47;5004019;28;119937;-74
2022/05/23 07:04:00;;;;;;;4.50;2.17;;;;;;;18.12;59.14;100534.22;5010047;27;120209;-74
2022/05/23 07:12:19;;;;;;;5.78;2.20;;;;;;;18.20;57.91;100532.44;4990536;28;119700;-74
2022/05/23 07:12:27;;;;;;;4.53;2.22;;;;;;;18.25;57.95;100537.25;4987494;28;119683;-74
2022/05/23 07:14:57;;;;;;;5.95;2.30;;;;;;;18.27;57.87;100528.41;4988919;28;122495;-74
2022/05/23 07:17:25;;;;;;;6.85;2.38;;;;;;;18.34;57.07;100525.88;5007561;28;120053;-74
2022/05/23 07:20:20;;;;;;;7.55;2.10;;;;;;;18.36;56.86;100520.56;4992211;27;119721;-74
2022/05/23 07:23:06;;;;;;;8.00;2.45;;;;;;;18.41;57.74;100522.56;5011637;27;119649;-74
2022/05/23 07:25:38;;;;;;;4.82;1.83;;;;;;;18.48;57.24;100537.97;4997743;28;119783;-75
2022/05/23 07:28:04;;;;;;;6.97;2.03;;;;;;;18.50;57.12;100523.56;4993138;28;119586;-75
2022/05/23 07:30:30;;;;;;;4.50;2.40;;;;;;;18.54;57.55;100512.94;4993250;28;120643;-74
2022/05/23 07:33:00;;;;;;;5.60;2.55;;;;;;;18.61;56.79;100520.75;4993888;28;120601;-74
2022/05/23 07:35:45;;;;;;;6.32;1.90;;;;;;;18.66;56.43;100520.00;5012229;27;119929;-74
2022/05/23 07:38:11;;;;;;;4.90;1.90;;;;;;;18.69;57.16;100518.97;4986494;28;122432;-74
2022/05/23 07:40:38;;;;;;;3.55;2.00;;;;;;;18.76;56.48;100515.69;5002350;28;119672;-74
2022/05/23 07:43:09;;;;;;;7.03;2.03;;;;;;;18.82;56.08;100508.06;4987224;27;120044;-74
2022/05/23 07:45:35;;;;;;;5.97;1.80;;;;;;;18.90;56.67;100511.81;5008931;28;120293;-74
2022/05/23 07:48:01;;;;;;;5.68;2.08;;;;;;;19.01;56.46;100497.88;5007892;27;119796;-74
2022/05/23 07:50:31;;;;;;;7.43;2.17;;;;;;;19.10;56.98;100496.06;4978793;28;120325;-75
2022/05/23 08:01:24;;;;;;;7.80;2.20;;;;;;;19.62;56.40;100474.50;5006523;27;119644;-75
2022/05/23 08:03:57;;;;;;;6.03;1.60;;;;;;;19.76;54.68;100460.72;5008033;27;120469;-75
2022/05/23 08:06:37;;;;;;;6.28;1.80;;;;;;;19.92;54.45;100474.50;4992293;28;119613;-74
2022/05/23 08:09:04;;;;;;;7.05;2.00;;;;;;;20.04;53.95;100461.22;5013378;27;120101;-74
2022/05/23 08:11:30;;;;;;;5.00;1.80;;;;;;;20.24;54.12;100471.13;4972591;27;122776;-75
2022/05/23 08:14:22;;;;;;;4.43;1.85;;;;;;;20.42;53.65;100469.72;5003781;28;119523;-75
2022/05/23 08:16:55;;;;;;;5.18;1.58;;;;;;;20.58;53.33;100465.19;4975084;28;120114;-75
2022/05/23 08:19:30;;;;;;;7.10;2.17;;;;;;;20.72;53.72;100453.63;5000529;28;120037;-75
2022/05/23 08:22:04;;;;;;;6.53;1.67;;;;;;;20.89;51.14;100455.44;4999045;27;119625;-74
2022/05/23 08:24:33;;;;;;;5.78;1.58;;;;;;;20.98;51.27;100446.69;5019275;27;119933;-75
2022/05/23 08:27:00;;;;;;;7.07;1.60;;;;;;;21.13;51.59;100438.63;4994626;28;120475;-74
2022/05/23 08:29:27;;;;;;;4.35;1.58;;;;;;;21.25;49.51;100434.41;5008061;27;119809;-74
2022/05/23 08:32:04;;;;;;;6.47;1.70;;;;;;;21.40;51.03;100443.03;5000667;28;121522;-75
2022/05/23 08:34:43;;;;;;;3.42;1.20;;;;;;;21.52;50.33;100440.81;4972933;28;119848;-75
2022/05/23 08:37:12;;;;;;;5.35;1.42;;;;;;;21.61;48.87;100432.06;4973471;28;119938;-75
2022/05/23 08:39:37;;;;;;;4.47;1.70;;;;;;;21.70;50.17;100433.66;4984319;28;121865;-75
2022/05/23 08:42:16;;;;;;;3.50;1.30;;;;;;;21.78;47.29;100422.66;4996319;27;119855;-75
2022/05/23 08:45:00;;;;;;;6.47;1.65;;;;;;;21.89;48.10;100423.19;4979408;28;119650;-75
2022/05/23 08:47:34;;;;;;;6.47;1.42;;;;;;;22.01;48.01;100427.28;5015401;27;120187;-74
2022/05/23 08:50:22;;;;;;;3.65;1.05;;;;;;;22.09;47.95;100421.81;4992704;27;119670;-74
2022/05/23 08:52:59;;;;;;;3.40;1.30;;;;;;;22.19;47.26;100425.69;5000569;27;119997;-75
2022/05/23 08:55:52;;;;;;;3.78;1.50;;;;;;;22.25;48.21;100417.97;5013190;27;119997;-75
2022/05/23 08:58:34;;;;;;;3.97;1.40;;;;;;;22.31;48.50;100403.88;5005347;28;119991;-75
2022/05/23 09:01:12;;;;;;;5.15;1.40;;;;;;;22.40;48.58;100416.66;5007579;28;120260;-75
2022/05/23 09:03:47;;;;;;;6.18;1.80;;;;;;;22.51;48.32;100410.84;4975661;28;120103;-75
2022/05/23 09:06:23;;;;;;;5.60;1.90;;;;;;;22.61;48.92;100409.09;4994686;27;120176;-75
2022/05/23 09:08:52;;;;;;;5.00;1.60;;;;;;;22.68;46.38;100391.66;4983485;27;122078;-75
2022/05/23 09:11:32;;;;;;;3.88;1.30;;;;;;;22.75;46.99;100390.25;5017841;27;120107;-75
2022/05/23 09:13:59;;;;;;;4.55;1.48;;;;;;;22.80;47.10;100378.94;5007054;27;119766;-75
2022/05/23 09:16:31;;;;;;;3.33;1.35;;;;;;;22.88;46.88;100382.56;5016054;27;120176;-75
2022/05/23 09:19:08;;;;;;;3.10;1.27;;;;;;;22.93;45.08;100383.75;5013877;27;120168;-75
2022/05/23 09:24:19;;;;;;;3.17;1.13;;;;;;;23.01;45.80;100369.84;5007160;27;120349;-75
2022/05/23 09:26:46;;;;;;;2.40;1.23;;;;;;;23.06;45.71;100377.34;4992038;28;120603;-75
2022/05/23 09:29:14;;;;;;;4.65;1.58;;;;;;;23.10;45.45;100375.72;4991061;28;120202;-75
2022/05/23 09:32:02;;;;;;;2.50;1.30;;;;;;;23.17;45.63;100371.47;5009203;28;120218;-75
2022/05/23 09:34:45;;;;;;;2.88;1.38;;;;;;;23.23;45.72;100367.25;5006731;28;120479;-75
2022/05/23 09:37:35;;;;;;;5.30;1.70;;;;;;;23.23;45.76;100361.66;4989997;28;122609;-75
2022/05/23 09:40:04;;;;;;;6.13;1.33;;;;;;;23.22;43.58;100357.38;5014554;27;120127;-75
2022/05/23 09:48:19;;;;;;;5.82;1.60;;;;;;;23.16;45.28;100345.53;5004847;28;119856;-75
2022/05/23 09:51:05;;;;;;;6.28;1.70;;;;;;;23.19;45.16;100344.47;4989253;28;120216;-75
2022/05/23 09:53:44;;;;;;;4.88;1.38;;;;;;;23.19;44.72;100338.88;5009263;27;120044;-75
2022/05/23 09:56:34;;;;;;;6.70;1.70;;;;;;;23.20;45.35;100329.19;4992019;27;121203;-75
2022/05/23 09:59:05;;;;;;;5.78;1.67;;;;;;;23.19;44.77;100321.34;5014033;27;121368;-75
2022/05/23 10:01:40;;;;;;;5.60;2.00;;;;;;;23.15;45.23;100313.28;4998593;28;120095;-75
2022/05/23 10:04:15;;;;;;;5.25;1.70;;;;;;;23.19;45.42;100319.28;4989283;28;119927;-75
2022/05/23 10:06:46;;;;;;;6.60;1.90;;;;;;;23.18;45.65;100314.97;5005165;27;121256;-75
2022/05/23 10:09:31;;;;;;;7.10;2.22;;;;;;;23.22;46.13;100315.41;4997036;27;121257;-75
2022/05/23 10:12:32;;;;;;;5.20;2.30;;;;;;;23.23;45.28;100299.34;4993537;27;120957;-75
2022/05/23 10:15:22;;;;;;;5.78;2.05;;;;;;;23.23;45.46;100297.31;5012924;27;120562;-75
2022/05/23 10:18:03;;;;;;;7.50;2.38;;;;;;;23.19;45.09;100288.53;5026835;27;120737;-75
2022/05/23 10:20:35;;;;;;;5.93;1.88;;;;;;;23.18;45.82;100284.19;5027285;27;122183;-75
2022/05/23 10:23:07;;;;;;;7.15;1.77;;;;;;;23.17;46.32;100290.34;5002058;28;120110;-75
2022/05/23 10:25:46;;;;;;;4.35;1.90;;;;;;;23.16;44.88;100274.84;4973542;28;121612;-75
2022/05/23 10:28:20;;;;;;;3.25;1.95;;;;;;;23.16;46.06;100272.81;5013925;28;120643;-75
2022/05/23 10:31:01;;;;;;;11.30;2.55;;;;;;;23.17;45.77;100263.09;5005363;27;119994;-75
2022/05/23 10:33:29;;;;;;;4.57;1.92;;;;;;;23.17;44.91;100249.13;4993092;28;120015;-75
2022/05/23 10:36:10;;;;;;;9.00;2.30;;;;;;;23.18;45.66;100256.22;4999163;27;119946;-75
2022/05/23 10:44:49;;;;;;;5.35;1.90;;;;;;;23.37;45.11;100258.78;5009347;27;120174;-75
2022/05/23 10:47:48;;;;;;;6.05;2.35;;;;;;;23.45;45.87;100259.59;4994611;27;121213;-75
2022/05/23 10:50:20;;;;;;;6.57;2.00;;;;;;;23.48;45.30;100254.94;5008533;27;121112;-75
2022/05/23 10:52:53;;;;;;;4.93;2.20;;;;;;;23.48;46.38;100258.47;4995249;28;120295;-75
2022/05/23 10:55:30;;;;;;;5.43;1.90;;;;;;;23.51;45.57;100248.22;5010353;28;120312;-75
2022/05/23 10:58:29;;;;;;;6.35;2.08;;;;;;;23.50;45.61;100243.94;5006960;27;120755;-75
2022/05/23 11:01:07;;;;;;;4.68;2.08;;;;;;;23.45;44.83;100236.44;5008750;27;120258;-75
2022/05/23 11:03:48;;;;;;;5.50;2.30;;;;;;;23.45;45.61;100240.00;5003935;27;120361;-75
2022/05/23 11:06:25;;;;;;;7.32;2.22;;;;;;;23.44;45.01;100234.94;5002197;27;120369;-75
2022/05/23 11:09:35;;;;;;;6.15;2.10;;;;;;;23.41;45.60;100230.44;4993295;27;120258;-75
2022/05/23 11:12:18;;;;;;;5.80;2.30;;;;;;;23.35;44.91;100218.66;4945558;28;120716;-75
2022/05/23 11:14:46;;;;;;;5.60;2.25;;;;;;;23.34;45.07;100219.94;4998340;27;119950;-75
2022/05/23 11:17:37;;;;;;;5.13;2.05;;;;;;;23.37;44.34;100219.59;5008688;28;120221;-77
2022/05/23 11:20:14;;;;;;;6.13;2.40;;;;;;;23.35;44.57;100219.41;5003318;27;120044;-74
2022/05/23 11:22:45;;;;;;;7.75;2.40;;;;;;;23.37;45.05;100210.44;4996336;27;120720;-75
2022/05/23 11:25:29;;;;;;;7.10;2.08;;;;;;;23.39;45.15;100216.25;5008457;27;120210;-75
2022/05/23 11:34:16;;;;;;;7.30;2.40;;;;;;;23.38;44.88;100197.97;5009636;27;120631;-75
2022/05/23 11:36:57;;;;;;;7.40;2.60;;;;;;;23.38;44.32;100186.75;5003444;27;121002;-75
2022/05/23 11:39:41;;;;;;;7.28;2.63;;;;;;;23.39;44.36;100185.47;4993178;28;121757;-75
2022/05/23 11:42:19;;;;;;;6.28;2.45;;;;;;;23.40;45.28;100181.34;5004964;27;120666;-77
2022/05/23 11:44:51;;;;;;;5.82;2.20;;;;;;;23.40;45.07;100173.72;5010124;27;120369;-75
2022/05/23 11:47:25;;;;;;;9.85;2.55;;;;;;;23.43;45.26;100166.28;4991275;28;121044;-75
2022/05/23 11:50:00;;;;;;;5.95;2.50;;;;;;;23.44;45.43;100174.13;5004773;27;120550;-75
2022/05/23 11:52:40;;;;;;;8.57;2.75;;;;;;;23.41;44.76;100163.25;4980831;28;120239;-75
2022/05/23 11:55:31;;;;;;;5.05;2.63;;;;;;;23.44;45.50;100156.59;4991844;27;122041;-75
2022/05/23 11:58:17;;;;;;;8.68;2.80;;;;;;;23.46;45.04;100145.59;4987977;27;121213;-75
2022/05/23 12:01:03;;;;;;;8.20;2.53;;;;;;;23.53;45.37;100147.66;5012214;27;120298;-76
2022/05/23 12:03:55;;;;;;;9.45;2.97;;;;;;;23.54;44.79;100133.09;5012130;27;122018;-75
2022/05/23 12:06:24;;;;;;;10.25;2.42;;;;;;;23.58;44.96;100138.38;5014407;27;120561;-75
2022/05/23 12:09:12;;;;;;;7.43;2.97;;;;;;;23.63;44.67;100139.50;4993994;27;120716;-75
2022/05/23 12:11:43;;;;;;;11.73;3.10;;;;;;;23.68;44.69;100141.41;5005111;28;120594;-76
2022/05/23 12:14:27;;;;;;;9.15;2.65;;;;;;;23.72;44.73;100130.59;4992967;28;120392;-75
2022/05/23 12:16:56;;;;;;;;;;;;;;;23.71;44.44;100126.28;5014615;27;120187;-75
2022/05/23 12:19:28;;;;;;;9.60;2.80;;;;;;;23.74;45.35;100133.56;4995875;28;120925;-77
2022/05/23 12:22:19;;;;;;;9.05;3.03;;;;;;;23.74;44.70;100116.78;5003828;27;121337;-75
2022/05/23 12:25:02;;;;;;;6.70;2.75;;;;;;;23.75;45.00;100116.22;5006962;27;121353;-75
2022/05/23 12:27:35;;;;;;;8.55;3.20;;;;;;;23.80;45.14;100106.88;4999216;27;120537;-75
2022/05/23 12:30:17;;;;;;;9.27;2.90;;;;;;;23.86;45.31;100110.25;5007916;27;121081;-75
2022/05/23 12:32:47;;;;;;;7.43;2.88;;;;;;;23.86;44.96;100101.09;5008478;27;120492;-75
2022/05/23 12:35:15;;;;;;;8.80;2.88;;;;;;;23.91;44.84;100102.25;5009059;27;120554;-75
2022/05/23 12:37:59;;;;;;;8.07;2.97;;;;;;;23.88;44.93;100104.84;5007995;28;121516;-75
2022/05/23 12:40:28;;;;;;;7.88;2.97;;;;;;;23.89;44.88;100097.94;4990418;28;121109;-74